Time;durP1;ratioP1;P1;durP2;ratioP2;P2;SDS_P1;SDS_P2;PMS_P1;PMS_P2;Temp;Humidity;BMP_temperature;BMP_pressure;BME280_temperature;BME280_humidity;BME280_pressure;Samples;Min_cycle;Max_cycle;Signal;HPM_P1;HPM_P2
2023/11/06 00:04:27;;;;;;;;;;;;;;;;;;10527335;28;20002;-78
2023/11/06 00:09:32;;;;;;;;;;;;;;;;;;10507968;28;19931;-78
2023/11/06 00:14:45;;;;;;;;;;;;;;;;;;10529308;28;19920;-78
2023/11/06 00:19:54;;;;;;;;;;;;;;;;;;10518261;28;19939;-78
2023/11/06 00:25:01;;;;;;;;;;;;;;;;;;10539891;28;19927;-80
2023/11/06 00:30:13;;;;;;;;;;;;;;;;;;10527595;28;20269;-81
2023/11/06 00:35:19;;;;;;;;;;;;;;;;;;10539956;27;19924;-79
2023/11/06 00:40:29;;;;;;;;;;;;;;;;;;10527037;28;19920;-78
2023/11/06 00:45:35;;;;;;;;;;;;;;;;;;10541996;27;19988;-80
2023/11/06 00:50:43;;;;;;;;;;;;;;;;;;10502876;28;19931;-77
2023/11/06 00:55:46;;;;;;;;;;;;;;;;;;10521269;28;20290;-78
2023/11/06 01:00:50;;;;;;;;;;;;;;;;;;10542879;27;19926;-78
2023/11/06 01:05:53;;;;;;;;;;;;;;;;;;10525035;28;19928;-78
2023/11/06 01:10:56;;;;;;;;;;;;;;;;;;10505144;28;19932;-79
2023/11/06 01:16:01;;;;;;;;;;;;;;;;;;10502534;28;19951;-79
2023/11/06 01:21:07;;;;;;;;;;;;;;;;;;10523635;28;19928;-78
2023/11/06 01:26:10;;;;;;;;;;;;;;;;;;10498276;28;20510;-78
2023/11/06 01:31:15;;;;;;;;;;;;;;;;;;10539861;27;19961;-78
2023/11/06 01:36:22;;;;;;;;;;;;;;;;;;10521374;28;19927;-79
2023/11/06 01:41:30;;;;;;;;;;;;;;;;;;10522900;28;20440;-78
2023/11/06 01:46:41;;;;;;;;;;;;;;;;;;10524652;28;19927;-79
2023/11/06 01:51:47;;;;;;;;;;;;;;;;;;10527269;28;20050;-80
2023/11/06 01:56:49;;;;;;;;;;;;;;;;;;10507037;28;19931;-78
2023/11/06 02:01:53;;;;;;;;;;;;;;;;;;10525643;28;19968;-78
2023/11/06 02:06:56;;;;;;;;;;;;;;;;;;10523298;28;19928;-77
2023/11/06 02:12:02;;;;;;;;;;;;;;;;;;10496650;28;20401;-77
2023/11/06 02:17:06;;;;;;;;;;;;;;;;;;10525129;28;20478;-78
2023/11/06 02:22:10;;;;;;;;;;;;;;;;;;10525605;28;19997;-78
2023/11/06 02:27:16;;;;;;;;;;;;;;;;;;10518726;28;19928;-77
2023/11/06 02:32:22;;;;;;;;;;;;;;;;;;10542491;28;19927;-77
2023/11/06 02:37:30;;;;;;;;;;;;;;;;;;10511524;28;19923;-78
2023/11/06 02:42:36;;;;;;;;;;;;;;;;;;10515568;28;19926;-79
2023/11/06 02:47:41;;;;;;;;;;;;;;;;;;10524867;28;20353;-79
2023/11/06 02:52:49;;;;;;;;;;;;;;;;;;10534346;28;19939;-78
2023/11/06 02:58:00;;;;;;;;;;;;;;;;;;10502889;28;19924;-79
2023/11/06 03:03:05;;;;;;;;;;;;;;;;;;10528932;28;20429;-78
2023/11/06 03:08:10;;;;;;;;;;;;;;;;;;10517830;28;19919;-77
2023/11/06 03:13:17;;;;;;;;;;;;;;;;;;10531196;28;19919;-79
2023/11/06 03:18:21;;;;;;;;;;;;;;;;;;10526149;28;19934;-79
2023/11/06 03:23:28;;;;;;;;;;;;;;;;;;10524097;28;20001;-79
2023/11/06 03:28:35;;;;;;;;;;;;;;;;;;10517215;28;19920;-80
2023/11/06 03:33:43;;;;;;;;;;;;;;;;;;10500617;28;19920;-78
2023/11/06 03:38:46;;;;;;;;;;;;;;;;;;10521450;28;19982;-77
2023/11/06 03:49:09;;;;;;;;;;;;;;;;;;10530359;28;20018;-80
2023/11/06 03:54:27;;;;;;;;;;;;;;;;;;10527643;28;19924;-78
2023/11/06 03:59:30;;;;;;;;;;;;;;;;;;10530219;28;20018;-77
2023/11/06 04:04:40;;;;;;;;;;;;;;;;;;10507356;28;19935;-77
2023/11/06 04:09:47;;;;;;;;;;;;;;;;;;10509723;28;20327;-77
2023/11/06 04:20:14;;;;;;;;;;;;;;;;;;10532783;28;19924;-79
2023/11/06 04:25:20;;;;;;;;;;;;;;;;;;10504941;28;19931;-79
2023/11/06 04:30:26;;;;;;;;;;;;;;;;;;10527832;28;20389;-78
2023/11/06 04:35:33;;;;;;;;;;;;;;;;;;10531012;28;20015;-79
2023/11/06 04:40:42;;;;;;;;;;;;;;;;;;10520965;28;19935;-81
2023/11/06 04:45:48;;;;;;;;;;;;;;;;;;10543743;27;19930;-81
2023/11/06 04:56:16;;;;;;;;;;;;;;;;;;10505794;28;19920;-81
2023/11/06 05:01:22;;;;;;;;;;;;;;;;;;10521487;28;19931;-81
2023/11/06 05:06:28;;;;;;;;;;;;;;;;;;10526999;28;19938;-77
2023/11/06 05:11:34;;;;;;;;;;;;;;;;;;10530266;28;19924;-77
2023/11/06 05:16:37;;;;;;;;;;;;;;;;;;10503614;28;20053;-76
2023/11/06 05:21:44;;;;;;;;;;;;;;;;;;10516215;28;19930;-76
2023/11/06 05:26:57;;;;;;;;;;;;;;;;;;10485608;28;19977;-79
2023/11/06 05:32:03;;;;;;;;;;;;;;;;;;10506749;28;19959;-79
2023/11/06 05:37:13;;;;;;;;;;;;;;;;;;10524210;28;20357;-79
2023/11/06 05:42:16;;;;;;;;;;;;;;;;;;10518117;28;19928;-78
2023/11/06 05:47:21;;;;;;;;;;;;;;;;;;10532595;27;20338;-78
2023/11/06 05:52:29;;;;;;;;;;;;;;;;;;10536101;28;19920;-79
2023/11/06 05:57:37;;;;;;;;;;;;;;;;;;10522071;28;20377;-78
2023/11/06 06:02:49;;;;;;;;;;;;;;;;;;10537910;27;19928;-77
2023/11/06 06:07:56;;;;;;;;;;;;;;;;;;10501461;28;20014;-78
2023/11/06 06:13:01;;;;;;;;;;;;;;;;;;10516578;28;20047;-78
2023/11/06 06:18:08;;;;;;;;;;;;;;;;;;10522650;28;20611;-80
2023/11/06 06:23:22;;;;;;;;;;;;;;;;;;10526906;28;19928;-80
2023/11/06 06:28:32;;;;;;;;;;;;;;;;;;10508964;28;19935;-82
2023/11/06 06:33:44;;;;;;;;;;;;;;;;;;10502105;28;19961;-81
2023/11/06 06:38:52;;;;;;;;;;;;;;;;;;10517956;28;20011;-81
2023/11/06 06:44:02;;;;;;;;;;;;;;;;;;10519683;28;20034;-81
2023/11/06 06:49:11;;;;;;;;;;;;;;;;;;10526975;28;19928;-79
2023/11/06 06:54:17;;;;;;;;;;;;;;;;;;10539636;28;19928;-79
2023/11/06 06:59:19;;;;;;;;;;;;;;;;;;10491422;28;19920;-79
2023/11/06 07:04:23;;;;;;;;;;;;;;;;;;10516935;28;19923;-80
2023/11/06 07:09:31;;;;;;;;;;;;;;;;;;10540340;28;19927;-83
2023/11/06 07:14:48;;;;;;;;;;;;;;;;;;10511204;28;19942;-82
2023/11/06 07:20:15;;;;;;;;;;;;;;;;;;10520987;28;19924;-82
2023/11/06 07:25:29;;;;;;;;;;;;;;;;;;10505588;28;19932;-82
2023/11/06 07:30:33;;;;;;;;;;;;;;;;;;10523801;28;22341;-80
2023/11/06 07:35:41;;;;;;;;;;;;;;;;;;10525681;28;19931;-80
2023/11/06 07:40:46;;;;;;;;;;;;;;;;;;10525568;28;19924;-80
2023/11/06 07:45:49;;;;;;;;;;;;;;;;;;10488157;28;20385;-81
2023/11/06 07:50:56;;;;;;;;;;;;;;;;;;10534899;27;19967;-81
2023/11/06 07:56:03;;;;;;;;;;;;;;;;;;10522004;28;20452;-80
2023/11/06 08:01:08;;;;;;;;;;;;;;;;;;10543969;27;19934;-81
2023/11/06 08:06:12;;;;;;;;;;;;;;;;;;10518614;28;19934;-81
2023/11/06 08:11:21;;;;;;;;;;;;;;;;;;10501172;28;19997;-80
2023/11/06 08:16:29;;;;;;;;;;;;;;;;;;10516686;28;19931;-81
2023/11/06 08:21:33;;;;;;;;;;;;;;;;;;10498328;28;19931;-81
2023/11/06 08:26:38;;;;;;;;;;;;;;;;;;10501139;28;19924;-80
2023/11/06 08:34:57;;;;;;;3.28;0.70;;;;;;;;;;10542044;27;21045;-63
2023/11/06 08:40:00;;;;;;;1.98;0.70;;;;;;;;;;10522032;28;20044;-65
2023/11/06 08:45:03;;;;;;;1.02;0.60;;;;;;;;;;10522444;28;20556;-63
2023/11/06 08:50:08;;;;;;;1.50;1.20;;;;;;;;;;10522225;28;20503;-74
2023/11/06 08:55:11;;;;;;;3.53;1.63;;;;;;;;;;10528692;28;20036;-75
2023/11/06 09:00:16;;;;;;;2.00;1.10;;;;;;;;;;10530156;28;20559;-72
2023/11/06 09:05:21;;;;;;;0.75;0.75;;;;;;;;;;10529653;28;20032;-74
2023/11/06 09:10:25;;;;;;;3.45;1.60;;;;;;;;;;10524280;28;21062;-73
2023/11/06 09:15:27;;;;;;;2.65;1.50;;;;;;;;;;10523842;28;20046;-73
2023/11/06 09:20:33;;;;;;;1.35;1.25;;;;;;;;;;10531889;28;21370;-73
2023/11/06 09:25:36;;;;;;;2.47;1.40;;;;;;;;;;10537166;28;20048;-73
2023/11/06 09:30:39;;;;;;;2.55;1.45;;;;;;;;;;10525200;28;20073;-73
2023/11/06 09:35:43;;;;;;;1.58;1.45;;;;;;;;;;10521220;28;20481;-73
2023/11/06 09:40:46;;;;;;;1.73;1.50;;;;;;;;;;10528102;28;20062;-74
2023/11/06 09:45:49;;;;;;;3.78;1.58;;;;;;;;;;10496322;28;20074;-73
2023/11/06 09:50:56;;;;;;;3.05;1.60;;;;;;;;;;10499737;28;20519;-73
2023/11/06 09:55:59;;;;;;;2.15;1.45;;;;;;;;;;10497960;28;20395;-74
2023/11/06 10:01:02;;;;;;;1.70;1.60;;;;;;;;;;10490705;28;20271;-74
2023/11/06 10:06:07;;;;;;;1.48;1.42;;;;;;;;;;10495881;28;20044;-74
2023/11/06 10:11:10;;;;;;;1.67;1.50;;;;;;;;;;10493015;28;20040;-74
2023/11/06 10:16:21;;;;;;;1.73;1.50;;;;;;;;;;10497764;28;20047;-75
2023/11/06 10:21:28;;;;;;;2.78;1.67;;;;;;;;;;10489781;28;20052;-75
2023/11/06 10:26:32;;;;;;;1.60;1.50;;;;;;;;;;10492744;28;20055;-73
2023/11/06 10:31:36;;;;;;;3.55;2.20;;;;;;;;;;10492593;28;20047;-74
2023/11/06 10:36:42;;;;;;;1.63;1.52;;;;;;;;;;10488622;28;20139;-73
2023/11/06 10:41:45;;;;;;;1.95;1.60;;;;;;;;;;10495042;28;20047;-74
2023/11/06 10:46:47;;;;;;;3.22;1.58;;;;;;;;;;10487246;28;20366;-73
2023/11/06 10:51:52;;;;;;;1.70;1.60;;;;;;;;;;10498048;28;20130;-73
2023/11/06 10:56:57;;;;;;;2.92;1.50;;;;;;;;;;10492199;28;20135;-73
2023/11/06 11:02:00;;;;;;;0.85;0.85;;;;;;;;;;10487670;28;20044;-73
2023/11/06 11:07:06;;;;;;;0.93;0.80;;;;;;;;;;10491041;28;20695;-74
2023/11/06 11:12:09;;;;;;;2.97;0.30;;;;;;;;;;10492214;28;20454;-74
2023/11/06 11:17:12;;;;;;;1.27;0.43;;;;;;;;;;10491555;28;20054;-74
2023/11/06 11:22:17;;;;;;;0.73;0.30;;;;;;;;;;10488537;28;20127;-74
2023/11/06 11:27:22;;;;;;;3.63;1.48;;;;;;;;;;10490901;28;20121;-76
2023/11/06 11:32:47;;;;;;;0.52;0.50;;;;;;;;;;10487325;28;20032;-74
2023/11/06 11:37:53;;;;;;;1.27;1.20;;;;;;;;;;10494513;28;20532;-73
2023/11/06 11:43:17;;;;;;;1.40;1.30;;;;;;;;;;10489367;28;20428;-74
2023/11/06 11:48:20;;;;;;;1.92;1.40;;;;;;;;;;10494761;28;20051;-74
2023/11/06 11:53:34;;;;;;;1.48;1.38;;;;;;;;;;10499723;28;20121;-74
2023/11/06 11:58:42;;;;;;;1.50;1.40;;;;;;;;;;10490681;28;20676;-74
2023/11/06 12:03:45;;;;;;;1.40;1.30;;;;;;;;;;10487602;28;20044;-74
2023/11/06 12:08:56;;;;;;;1.42;1.33;;;;;;;;;;10495674;28;20041;-74
2023/11/06 12:14:01;;;;;;;1.90;1.37;;;;;;;;;;10490324;28;20042;-74
2023/11/06 12:19:08;;;;;;;1.63;1.40;;;;;;;;;;10494642;28;20064;-74
2023/11/06 12:24:13;;;;;;;1.08;0.52;;;;;;;;;;10488185;28;20486;-74
2023/11/06 12:29:24;;;;;;;7.10;1.50;;;;;;;;;;10492595;28;20065;-73
2023/11/06 12:34:27;;;;;;;1.23;0.70;;;;;;;;;;10483047;28;20025;-74
2023/11/06 12:39:33;;;;;;;2.40;0.50;;;;;;;;;;10489986;28;20095;-74
2023/11/06 12:44:38;;;;;;;0.98;0.40;;;;;;;;;;10486915;28;20384;-73
2023/11/06 12:49:52;;;;;;;1.42;0.63;;;;;;;;;;10487432;28;20045;-74
2023/11/06 12:54:57;;;;;;;1.30;0.30;;;;;;;;;;10492553;28;20181;-74
2023/11/06 13:00:00;;;;;;;0.68;0.40;;;;;;;;;;10492325;28;20433;-73
2023/11/06 13:05:04;;;;;;;1.58;0.40;;;;;;;;;;10496111;28;20761;-73
2023/11/06 13:10:10;;;;;;;0.30;0.30;;;;;;;;;;10494585;28;20059;-73
2023/11/06 13:15:14;;;;;;;0.57;0.35;;;;;;;;;;10492217;28;20040;-73
2023/11/06 13:20:28;;;;;;;;;;;;;;;;;;10493062;28;20045;-73
2023/11/06 13:25:46;;;;;;;0.98;0.32;;;;;;;;;;10499746;28;20556;-74
2023/11/06 13:30:51;;;;;;;0.40;0.30;;;;;;;;;;10528641;27;20059;-73
2023/11/06 13:35:54;;;;;;;0.95;0.38;;;;;;;;;;10496099;28;20138;-73
2023/11/06 13:40:58;;;;;;;1.80;0.35;;;;;;;;;;10494082;28;20087;-74
2023/11/06 13:46:07;;;;;;;0.55;0.40;;;;;;;;;;10498506;28;20066;-74
2023/11/06 13:51:13;;;;;;;4.90;0.75;;;;;;;;;;10502542;28;20044;-73
2023/11/06 13:56:18;;;;;;;2.22;0.77;;;;;;;;;;10497692;28;20106;-72
2023/11/06 14:01:44;;;;;;;0.73;0.47;;;;;;;;;;10495484;28;20490;-72
2023/11/06 14:06:52;;;;;;;0.68;0.50;;;;;;;;;;10501759;28;20139;-74
2023/11/06 14:11:55;;;;;;;0.68;0.40;;;;;;;;;;10497007;28;20044;-74
2023/11/06 14:17:00;;;;;;;4.67;1.10;;;;;;;;;;10498144;28;20043;-74
2023/11/06 14:22:07;;;;;;;3.65;0.60;;;;;;;;;;10495027;28;21149;-74
2023/11/06 14:27:13;;;;;;;7.90;1.33;;;;;;;;;;10493408;28;20127;-74
2023/11/06 14:32:17;;;;;;;0.93;0.30;;;;;;;;;;10495467;28;20036;-74
2023/11/06 14:37:20;;;;;;;5.18;0.68;;;;;;;;;;10501707;28;20149;-73
2023/11/06 14:42:22;;;;;;;4.72;0.90;;;;;;;;;;10494791;28;20033;-74
2023/11/06 14:47:27;;;;;;;4.00;0.50;;;;;;;;;;10494743;28;20634;-74
2023/11/06 14:52:29;;;;;;;2.22;0.90;;;;;;;;;;10495049;28;20051;-74
2023/11/06 14:57:32;;;;;;;2.13;0.60;;;;;;;;;;10496618;28;20073;-74
2023/11/06 15:02:37;;;;;;;1.42;0.63;;;;;;;;;;10495662;28;20048;-74
2023/11/06 15:07:41;;;;;;;2.03;0.85;;;;;;;;;;10499223;28;20041;-74
2023/11/06 15:12:46;;;;;;;0.95;0.60;;;;;;;;;;10494962;28;20047;-74
2023/11/06 15:17:51;;;;;;;1.23;0.65;;;;;;;;;;10499367;28;20049;-74
2023/11/06 15:22:54;;;;;;;1.45;0.57;;;;;;;;;;10490518;28;20052;-73
2023/11/06 15:27:58;;;;;;;0.98;0.60;;;;;;;;;;10495407;28;20130;-74
2023/11/06 15:33:04;;;;;;;1.73;0.70;;;;;;;;;;10491726;28;20054;-73
2023/11/06 15:38:07;;;;;;;2.13;0.50;;;;;;;;;;10495340;28;20050;-73
2023/11/06 15:43:10;;;;;;;0.67;0.40;;;;;;;;;;10492446;28;20180;-74
2023/11/06 15:48:15;;;;;;;2.75;1.10;;;;;;;;;;10493049;28;20045;-74
2023/11/06 15:53:18;;;;;;;0.13;0.13;;;;;;;;;;10496585;28;20044;-74
2023/11/06 15:58:21;;;;;;;1.85;0.82;;;;;;;;;;10493605;28;20152;-74
2023/11/06 16:03:27;;;;;;;0.60;0.55;;;;;;;;;;10495303;28;20051;-74
2023/11/06 16:08:32;;;;;;;0.77;0.57;;;;;;;;;;10495565;28;20587;-73
2023/11/06 16:13:36;;;;;;;2.15;1.00;;;;;;;;;;10492782;28;20052;-74
2023/11/06 16:18:41;;;;;;;0.50;0.50;;;;;;;;;;10494631;28;20072;-74
2023/11/06 16:23:43;;;;;;;3.33;0.85;;;;;;;;;;10490115;28;20055;-73
2023/11/06 16:28:48;;;;;;;0.88;0.43;;;;;;;;;;10487952;28;20101;-73
2023/11/06 16:33:52;;;;;;;0.00;0.00;;;;;;;;;;10489601;28;20147;-72
2023/11/06 16:38:58;;;;;;;1.55;0.75;;;;;;;;;;10491709;28;20063;-71
2023/11/06 16:44:01;;;;;;;0.35;0.35;;;;;;;;;;10494008;28;20111;-72
2023/11/06 16:49:08;;;;;;;0.52;0.52;;;;;;;;;;10495286;28;20044;-73
2023/11/06 16:54:17;;;;;;;2.25;0.60;;;;;;;;;;10505792;28;20078;-73
2023/11/06 16:59:19;;;;;;;0.57;0.35;;;;;;;;;;10499924;28;20516;-73
2023/11/06 17:04:23;;;;;;;0.82;0.40;;;;;;;;;;10502955;28;20043;-73
2023/11/06 17:09:27;;;;;;;1.67;0.65;;;;;;;;;;10499325;28;20037;-73
2023/11/06 17:14:35;;;;;;;0.60;0.45;;;;;;;;;;10500564;28;20042;-73
2023/11/06 17:19:39;;;;;;;0.80;0.50;;;;;;;;;;10506548;28;20040;-73
2023/11/06 17:24:43;;;;;;;1.67;0.85;;;;;;;;;;10505094;28;20052;-73
2023/11/06 17:29:46;;;;;;;2.33;1.10;;;;;;;;;;10492113;28;20357;-73
2023/11/06 17:34:51;;;;;;;1.80;0.77;;;;;;;;;;10494278;28;20063;-74
2023/11/06 17:39:56;;;;;;;2.25;0.70;;;;;;;;;;10496731;28;20140;-74
2023/11/06 17:44:59;;;;;;;0.95;0.60;;;;;;;;;;10499993;28;20526;-73
2023/11/06 17:50:04;;;;;;;5.53;3.13;;;;;;;;;;10499108;28;20040;-73
2023/11/06 17:55:15;;;;;;;1.83;1.38;;;;;;;;;;10494150;28;20123;-73
2023/11/06 18:00:19;;;;;;;0.80;0.50;;;;;;;;;;10494521;28;20052;-73
2023/11/06 18:05:23;;;;;;;6.47;1.80;;;;;;;;;;10492178;28;20032;-74
2023/11/06 18:10:26;;;;;;;2.45;0.80;;;;;;;;;;10487861;28;20052;-74
2023/11/06 18:15:29;;;;;;;2.40;1.13;;;;;;;;;;10496910;28;20051;-73
2023/11/06 18:20:33;;;;;;;1.52;0.70;;;;;;;;;;10486658;28;20041;-74
2023/11/06 18:25:35;;;;;;;;;;;;;;;;;;10488473;28;20051;-73
2023/11/06 18:30:38;;;;;;;8.82;1.25;;;;;;;;;;10486829;28;20461;-73
2023/11/06 18:35:44;;;;;;;2.13;0.80;;;;;;;;;;10496592;28;20062;-73
2023/11/06 18:40:50;;;;;;;1.52;0.52;;;;;;;;;;10486965;28;20055;-72
2023/11/06 18:45:57;;;;;;;1.42;0.93;;;;;;;;;;10492696;28;20071;-73
2023/11/06 18:51:01;;;;;;;2.85;1.02;;;;;;;;;;10493317;28;20046;-73
2023/11/06 18:56:04;;;;;;;;;;;;;;;;;;10491071;28;20396;-74
2023/11/06 19:01:07;;;;;;;2.08;0.82;;;;;;;;;;10489039;28;21509;-73
2023/11/06 19:06:11;;;;;;;2.78;0.60;;;;;;;;;;10493426;28;20178;-74
2023/11/06 19:11:25;;;;;;;2.13;0.82;;;;;;;;;;10498289;28;20040;-73
2023/11/06 19:16:28;;;;;;;1.67;0.80;;;;;;;;;;10486260;28;20035;-74
2023/11/06 19:21:32;;;;;;;1.50;1.00;;;;;;;;;;10494761;28;20035;-74
2023/11/06 19:26:36;;;;;;;1.60;0.80;;;;;;;;;;10489993;28;20045;-71
2023/11/06 19:31:39;;;;;;;1.83;1.10;;;;;;;;;;10495780;28;20040;-73
2023/11/06 19:36:43;;;;;;;3.03;0.98;;;;;;;;;;10491482;28;20036;-72
2023/11/06 19:41:46;;;;;;;2.33;0.80;;;;;;;;;;10489367;28;20128;-72
2023/11/06 19:46:50;;;;;;;1.05;0.57;;;;;;;;;;10493761;28;20117;-73
2023/11/06 19:51:53;;;;;;;0.65;0.57;;;;;;;;;;10494993;28;20094;-74
2023/11/06 19:56:56;;;;;;;;;;;;;;;;;;10492472;28;20047;-72
2023/11/06 20:01:59;;;;;;;2.10;0.73;;;;;;;;;;10498099;28;19920;-73
2023/11/06 20:07:08;;;;;;;0.60;0.47;;;;;;;;;;10487184;28;20447;-74
2023/11/06 20:12:11;;;;;;;1.60;0.65;;;;;;;;;;10495412;28;20519;-73
2023/11/06 20:17:13;;;;;;;2.05;0.70;;;;;;;;;;10495772;28;20148;-73
2023/11/06 20:22:17;;;;;;;1.10;0.70;;;;;;;;;;10495055;28;20036;-73
2023/11/06 20:27:21;;;;;;;1.65;1.00;;;;;;;;;;10499887;28;20058;-73
2023/11/06 20:32:24;;;;;;;1.70;1.10;;;;;;;;;;10489847;28;20076;-73
2023/11/06 20:37:28;;;;;;;1.63;0.80;;;;;;;;;;10487623;28;20048;-74
2023/11/06 20:42:32;;;;;;;0.40;0.40;;;;;;;;;;10490315;28;20044;-73
2023/11/06 20:47:35;;;;;;;1.63;0.80;;;;;;;;;;10493849;28;20044;-73
2023/11/06 20:52:40;;;;;;;3.75;0.50;;;;;;;;;;10489884;28;20063;-73
2023/11/06 20:57:42;;;;;;;;;;;;;;;;;;10492998;28;20120;-73
2023/11/06 21:02:46;;;;;;;1.30;0.60;;;;;;;;;;10497078;28;19927;-73
2023/11/06 21:07:51;;;;;;;2.20;1.00;;;;;;;;;;10490252;28;20044;-73
2023/11/06 21:12:54;;;;;;;1.00;0.90;;;;;;;;;;10495825;28;20399;-72
2023/11/06 21:17:57;;;;;;;1.80;0.70;;;;;;;;;;10489581;28;20147;-71
2023/11/06 21:23:01;;;;;;;0.85;0.47;;;;;;;;;;10489398;28;20047;-72
2023/11/06 21:28:06;;;;;;;0.93;0.52;;;;;;;;;;10490981;28;20032;-72
2023/11/06 21:33:09;;;;;;;0.95;0.45;;;;;;;;;;10486601;28;20658;-71
2023/11/06 21:38:13;;;;;;;0.23;0.20;;;;;;;;;;10489632;28;20035;-72
2023/11/06 21:43:15;;;;;;;;;;;;;;;;;;10493462;28;20290;-72
2023/11/06 21:48:18;;;;;;;1.17;0.30;;;;;;;;;;10495497;28;19928;-71
2023/11/06 21:53:22;;;;;;;0.22;0.20;;;;;;;;;;10497873;28;20127;-72
2023/11/06 21:58:25;;;;;;;0.38;0.28;;;;;;;;;;10489682;28;20430;-72
2023/11/06 22:03:33;;;;;;;0.60;0.20;;;;;;;;;;10495986;28;20055;-72
2023/11/06 22:08:38;;;;;;;1.23;0.13;;;;;;;;;;10502414;28;20473;-72
2023/11/06 22:13:43;;;;;;;0.25;0.20;;;;;;;;;;10493817;28;20195;-72
2023/11/06 22:18:46;;;;;;;1.90;0.40;;;;;;;;;;10497719;28;20207;-72
2023/11/06 22:23:51;;;;;;;0.30;0.30;;;;;;;;;;10497820;28;20564;-72
2023/11/06 22:28:54;;;;;;;0.65;0.30;;;;;;;;;;10499559;28;20036;-73
2023/11/06 22:33:57;;;;;;;0.52;0.28;;;;;;;;;;10492382;28;20036;-73
2023/11/06 22:39:02;;;;;;;0.80;0.50;;;;;;;;;;10497531;28;20160;-72
2023/11/06 22:44:05;;;;;;;0.50;0.30;;;;;;;;;;10494068;28;20119;-72
2023/11/06 22:49:08;;;;;;;0.17;0.10;;;;;;;;;;10490834;28;20079;-73
2023/11/06 22:54:13;;;;;;;0.22;0.10;;;;;;;;;;10495111;28;20052;-73
2023/11/06 22:59:17;;;;;;;0.20;0.20;;;;;;;;;;10495839;28;20040;-73
2023/11/06 23:04:21;;;;;;;0.60;0.30;;;;;;;;;;10490847;28;20047;-72
2023/11/06 23:09:28;;;;;;;1.67;0.15;;;;;;;;;;10495229;28;20413;-72
2023/11/06 23:14:31;;;;;;;1.85;0.40;;;;;;;;;;10499438;28;20059;-72
2023/11/06 23:19:34;;;;;;;0.87;0.40;;;;;;;;;;10495728;28;20039;-72
2023/11/06 23:24:38;;;;;;;0.10;0.10;;;;;;;;;;10498563;28;20040;-72
2023/11/06 23:29:41;;;;;;;0.13;0.13;;;;;;;;;;10491601;28;20043;-73
2023/11/06 23:34:44;;;;;;;0.20;0.10;;;;;;;;;;10493031;28;20099;-73
2023/11/06 23:39:48;;;;;;;1.80;0.10;;;;;;;;;;10499197;28;20055;-73
2023/11/06 23:44:50;;;;;;;0.20;0.20;;;;;;;;;;10500820;28;20060;-73
2023/11/06 23:49:53;;;;;;;0.10;0.10;;;;;;;;;;10495333;28;20151;-73
2023/11/06 23:54:57;;;;;;;0.10;0.10;;;;;;;;;;10498133;28;20666;-73
